Time;durP1;ratioP1;P1;durP2;ratioP2;P2;SDS_P1;SDS_P2;PMS_P1;PMS_P2;Temp;Humidity;BMP_temperature;BMP_pressure;BME280_temperature;BME280_humidity;BME280_pressure;Samples;Min_cycle;Max_cycle;Signal;HPM_P1;HPM_P2
2024/01/28 00:01:32;;;;;;;32.65;21.58;;;;;;;16.64;42.66;94998.22;4994047;28;20452;-91
2024/01/28 00:03:58;;;;;;;29.23;20.70;;;;;;;16.67;43.41;95002.75;5011655;28;20095;-91
2024/01/28 00:06:23;;;;;;;38.67;23.42;;;;;;;16.69;42.99;95005.75;5028546;28;20033;-91
2024/01/28 00:08:49;;;;;;;35.22;22.45;;;;;;;16.65;43.07;95005.19;4992835;28;20041;-91
2024/01/28 00:11:14;;;;;;;31.10;21.02;;;;;;;16.62;43.13;94993.19;5008118;28;20041;-91
2024/01/28 00:13:40;;;;;;;30.02;18.73;;;;;;;16.62;42.75;94995.16;4994073;28;20510;-91
2024/01/28 00:16:05;;;;;;;34.65;23.73;;;;;;;16.64;43.13;94990.78;5010928;28;20130;-91
2024/01/28 00:18:31;;;;;;;25.38;16.77;;;;;;;16.58;42.59;94984.41;4996377;28;20053;-91
2024/01/28 00:20:56;;;;;;;34.50;23.67;;;;;;;16.64;43.76;94985.31;4990092;28;20045;-91
2024/01/28 00:23:22;;;;;;;41.30;27.65;;;;;;;16.64;43.36;94990.78;4977630;28;20084;-91
2024/01/28 00:25:47;;;;;;;35.78;22.92;;;;;;;16.67;43.27;94980.91;4978439;28;20128;-91
2024/01/28 00:28:13;;;;;;;39.20;22.45;;;;;;;16.66;43.11;94991.06;5010956;28;20060;-92
2024/01/28 00:30:38;;;;;;;29.13;19.30;;;;;;;16.59;42.78;94979.69;4985788;28;20513;-92
2024/01/28 00:33:04;;;;;;;30.70;21.20;;;;;;;16.63;43.37;94988.47;5018726;28;20134;-91
2024/01/28 00:35:29;;;;;;;41.10;26.08;;;;;;;16.58;42.96;94989.84;5011872;28;20041;-91
2024/01/28 00:37:57;;;;;;;40.22;25.65;;;;;;;16.63;43.38;94988.47;5005453;28;20037;-91
2024/01/28 00:40:24;;;;;;;32.70;23.70;;;;;;;16.65;43.16;94991.53;5021761;28;20053;-92
2024/01/28 00:42:49;;;;;;;40.03;25.70;;;;;;;16.63;42.90;94989.25;5009061;28;20132;-91
2024/01/28 00:45:14;;;;;;;34.92;22.88;;;;;;;16.63;43.42;94989.25;5009177;28;20128;-91
2024/01/28 00:47:43;;;;;;;31.77;20.35;;;;;;;16.69;43.18;94973.00;4994313;28;20037;-92
2024/01/28 00:50:08;;;;;;;31.98;20.52;;;;;;;16.70;43.31;94993.63;5012737;28;20113;-91
2024/01/28 00:52:34;;;;;;;35.58;22.45;;;;;;;16.66;43.35;94982.88;5025792;28;20056;-91
2024/01/28 00:54:59;;;;;;;39.75;24.33;;;;;;;16.66;43.24;94985.63;5015049;28;20040;-91
2024/01/28 00:57:25;;;;;;;38.90;25.17;;;;;;;16.65;43.16;94981.38;5016091;28;20118;-91
2024/01/28 00:59:50;;;;;;;38.40;24.38;;;;;;;16.66;43.19;94993.81;5012971;28;20107;-91
2024/01/28 01:02:16;;;;;;;32.38;21.38;;;;;;;16.65;43.16;94986.84;5029143;28;20115;-91
2024/01/28 01:04:41;;;;;;;41.78;26.02;;;;;;;16.65;43.29;94975.91;5015566;28;20522;-90
2024/01/28 01:07:06;;;;;;;41.05;26.00;;;;;;;16.67;43.31;94978.19;5002664;28;20649;-91
2024/01/28 01:09:32;;;;;;;38.70;24.85;;;;;;;16.66;42.92;94976.66;5032612;28;20040;-92
2024/01/28 01:11:59;;;;;;;39.40;23.80;;;;;;;16.65;43.12;94978.63;5016118;28;20051;-91
2024/01/28 01:14:25;;;;;;;34.80;22.42;;;;;;;16.67;43.04;94980.91;5029231;28;20050;-91
2024/01/28 01:16:50;;;;;;;42.40;25.85;;;;;;;16.66;43.26;94976.66;4997234;28;20038;-91
2024/01/28 01:19:16;;;;;;;37.40;23.98;;;;;;;16.62;43.27;94987.72;5013732;28;20037;-91
2024/01/28 01:21:42;;;;;;;43.38;27.05;;;;;;;16.65;43.28;94986.06;5007190;28;20419;-91
2024/01/28 01:24:08;;;;;;;26.92;17.95;;;;;;;16.62;43.81;94982.25;5024741;28;20041;-91
2024/01/28 01:26:33;;;;;;;47.95;30.02;;;;;;;16.67;43.29;94980.91;5031492;28;20584;-92
2024/01/28 01:28:59;;;;;;;31.83;22.23;;;;;;;16.65;42.98;94986.06;5012266;28;20164;-92
2024/01/28 01:31:24;;;;;;;37.05;24.95;;;;;;;16.65;42.55;94984.09;5000821;28;20397;-92
2024/01/28 01:33:50;;;;;;;38.03;23.38;;;;;;;16.64;42.87;94970.91;5007422;28;20407;-91
2024/01/28 01:36:16;;;;;;;30.08;20.20;;;;;;;16.63;43.29;94972.88;5022388;28;20041;-91
2024/01/28 01:38:41;;;;;;;34.17;23.23;;;;;;;16.62;43.06;94965.88;5015296;28;20056;-92
2024/01/28 01:41:07;;;;;;;41.13;26.85;;;;;;;16.63;42.94;94972.09;5019098;28;20151;-91
2024/01/28 01:43:32;;;;;;;39.95;24.83;;;;;;;16.63;43.09;94966.63;5006556;28;20042;-92
2024/01/28 01:45:58;;;;;;;41.63;25.98;;;;;;;16.61;43.11;94963.59;5015718;28;20041;-90
2024/01/28 01:48:23;;;;;;;38.25;24.63;;;;;;;16.61;43.20;94961.63;5014677;28;20139;-92
2024/01/28 01:50:49;;;;;;;38.28;24.38;;;;;;;16.63;42.53;94964.69;5002686;28;20041;-91
2024/01/28 01:53:14;;;;;;;33.05;23.42;;;;;;;16.64;43.03;94959.97;5027873;28;20045;-92
2024/01/28 01:55:40;;;;;;;39.95;26.80;;;;;;;16.67;43.46;94959.06;5012056;28;20096;-91
2024/01/28 01:58:05;;;;;;;38.28;24.65;;;;;;;16.58;43.33;94957.09;5004225;28;20045;-91
2024/01/28 02:00:31;;;;;;;37.85;24.30;;;;;;;16.62;42.74;94959.66;5012313;28;20147;-91
2024/01/28 02:02:57;;;;;;;31.55;21.17;;;;;;;16.67;42.78;94948.88;5006619;28;20037;-92
2024/01/28 02:05:22;;;;;;;26.85;18.33;;;;;;;16.62;42.56;94946.75;5013825;28;20052;-91
2024/01/28 02:07:48;;;;;;;40.47;25.33;;;;;;;16.63;43.43;94942.84;5013307;28;20060;-91
2024/01/28 02:10:14;;;;;;;35.10;22.10;;;;;;;16.63;42.47;94942.06;5031848;28;20122;-91
2024/01/28 02:12:44;;;;;;;39.47;25.67;;;;;;;16.65;43.00;94937.69;5014404;28;20041;-91
2024/01/28 02:15:09;;;;;;;33.67;20.45;;;;;;;16.64;42.61;94935.41;5011423;28;20101;-91
2024/01/28 02:17:35;;;;;;;38.83;24.45;;;;;;;16.65;42.81;94939.66;5029530;28;20053;-91
2024/01/28 02:20:02;;;;;;;42.80;27.05;;;;;;;16.63;43.24;94937.38;5012562;28;20136;-91
2024/01/28 02:22:28;;;;;;;36.95;25.23;;;;;;;16.63;43.56;94944.78;5014133;28;20693;-91
2024/01/28 02:24:54;;;;;;;35.42;24.02;;;;;;;16.59;43.09;94934.03;5020622;28;20080;-91
2024/01/28 02:27:19;;;;;;;40.58;24.58;;;;;;;16.61;43.51;94931.59;5047782;28;20112;-91
2024/01/28 02:29:45;;;;;;;34.20;22.38;;;;;;;16.59;43.61;94944.19;5040360;28;20038;-92
2024/01/28 02:32:17;;;;;;;34.33;21.98;;;;;;;16.60;43.21;94940.25;4996086;28;20087;-92
2024/01/28 02:34:43;;;;;;;32.72;22.23;;;;;;;16.62;43.17;94938.56;4985504;28;20147;-91
2024/01/28 02:37:11;;;;;;;38.70;24.45;;;;;;;16.61;42.91;94939.78;5024443;28;20041;-91
2024/01/28 02:39:37;;;;;;;34.72;22.20;;;;;;;16.59;42.99;94939.50;5016602;28;20049;-90
2024/01/28 02:42:03;;;;;;;37.35;23.70;;;;;;;16.59;43.00;94938.75;4990713;28;20056;-91
2024/01/28 02:44:29;;;;;;;29.27;18.33;;;;;;;16.56;42.91;94939.66;4992266;28;20049;-91
2024/01/28 02:46:55;;;;;;;37.72;24.30;;;;;;;16.58;43.27;94939.97;4998019;28;20044;-91
2024/01/28 02:49:23;;;;;;;41.95;25.98;;;;;;;16.61;43.32;94947.22;5013969;28;20045;-91
2024/01/28 02:51:49;;;;;;;32.67;20.67;;;;;;;16.58;42.89;94950.88;4998448;28;20041;-92
2024/01/28 02:54:15;;;;;;;36.13;23.95;;;;;;;16.60;43.11;94951.94;4987654;28;20471;-91
2024/01/28 02:56:40;;;;;;;39.15;23.90;;;;;;;16.62;42.83;94959.66;5003110;28;20140;-91
2024/01/28 02:59:06;;;;;;;31.45;20.70;;;;;;;16.60;43.04;94949.19;5013573;28;20037;-91
2024/01/28 03:01:31;;;;;;;40.97;26.60;;;;;;;16.60;43.22;94951.94;5012576;28;20109;-91
2024/01/28 03:03:57;;;;;;;32.10;20.25;;;;;;;16.63;43.08;94956.50;4997680;28;20285;-92
2024/01/28 03:06:23;;;;;;;34.38;23.40;;;;;;;16.65;43.28;94956.78;4991952;28;20056;-92
2024/01/28 03:08:48;;;;;;;38.35;24.02;;;;;;;16.65;43.07;94958.78;5001644;28;20049;-92
2024/01/28 03:11:15;;;;;;;36.30;23.02;;;;;;;16.62;42.90;94957.69;5010524;28;20037;-92
2024/01/28 03:13:40;;;;;;;38.20;24.48;;;;;;;16.60;43.48;94960.13;4988605;28;20038;-91
2024/01/28 03:16:06;;;;;;;36.33;24.17;;;;;;;16.58;43.32;94964.53;4989656;28;20034;-91
2024/01/28 03:18:31;;;;;;;28.27;18.80;;;;;;;16.60;43.15;94949.19;4996051;28;20075;-91
2024/01/28 03:20:57;;;;;;;41.25;26.40;;;;;;;16.59;42.88;94960.56;5010350;28;20132;-91
2024/01/28 03:23:22;;;;;;;38.13;25.80;;;;;;;16.60;43.08;94964.81;4999995;28;20049;-91
2024/01/28 03:25:48;;;;;;;30.40;19.27;;;;;;;16.57;43.41;94957.56;5004995;28;20060;-91
2024/01/28 03:28:13;;;;;;;36.35;23.60;;;;;;;16.61;42.90;94956.16;4996594;28;20443;-90
2024/01/28 03:30:39;;;;;;;39.80;25.13;;;;;;;16.63;43.15;94950.25;4996713;28;20183;-92
2024/01/28 03:33:04;;;;;;;22.90;13.95;;;;;;;16.65;42.88;94942.38;5002447;28;20041;-91
2024/01/28 03:35:30;;;;;;;40.05;26.10;;;;;;;16.66;43.02;94952.84;5009075;28;20147;-91
2024/01/28 03:37:55;;;;;;;34.30;24.15;;;;;;;16.67;43.18;94957.06;5009980;28;20045;-91
2024/01/28 03:40:21;;;;;;;23.45;15.77;;;;;;;16.65;42.60;94959.53;5004534;28;20033;-91
2024/01/28 03:42:46;;;;;;;18.77;13.60;;;;;;;16.71;42.17;94963.13;5010358;28;20308;-91
2024/01/28 03:45:12;;;;;;;18.52;12.80;;;;;;;16.71;42.62;94962.38;5001933;28;20060;-90
2024/01/28 03:47:37;;;;;;;25.80;16.88;;;;;;;16.73;42.30;94970.84;5029637;28;20041;-92
2024/01/28 03:50:03;;;;;;;30.73;19.40;;;;;;;16.71;42.33;94960.38;5000275;28;20124;-91
2024/01/28 03:52:29;;;;;;;26.60;18.63;;;;;;;16.75;42.82;94962.97;5015292;28;20041;-91
2024/01/28 03:54:54;;;;;;;28.05;19.25;;;;;;;16.79;42.51;94961.56;5011541;28;20041;-91
2024/01/28 03:57:20;;;;;;;39.08;24.58;;;;;;;16.79;42.61;94964.31;5009555;28;20045;-91
2024/01/28 03:59:46;;;;;;;33.88;21.92;;;;;;;16.84;42.50;94962.94;4997419;28;20041;-91
2024/01/28 04:02:14;;;;;;;32.38;23.40;;;;;;;16.83;43.22;94963.38;5003085;28;20056;-91
2024/01/28 04:04:40;;;;;;;27.40;16.25;;;;;;;16.69;42.25;94964.78;5025258;28;20506;-92
2024/01/28 04:07:05;;;;;;;31.90;21.15;;;;;;;16.73;42.47;94968.13;5004928;28;20037;-91
2024/01/28 04:09:32;;;;;;;31.00;18.92;;;;;;;16.69;42.16;94962.06;5028191;28;20040;-92
2024/01/28 04:11:58;;;;;;;33.95;22.35;;;;;;;16.73;42.56;94955.22;5020727;28;20337;-92
2024/01/28 04:14:23;;;;;;;31.60;20.52;;;;;;;16.73;42.57;94957.19;5009008;28;20561;-91
2024/01/28 04:16:49;;;;;;;34.95;21.05;;;;;;;16.63;42.47;94961.19;5018229;28;20041;-91
2024/01/28 04:19:14;;;;;;;28.60;19.33;;;;;;;16.63;42.97;94967.41;4994146;28;20111;-92
2024/01/28 04:21:41;;;;;;;42.88;26.58;;;;;;;16.64;42.80;94966.22;5009330;28;20044;-91
2024/01/28 04:24:07;;;;;;;34.28;21.80;;;;;;;16.66;42.86;94963.78;5004350;28;20045;-91
2024/01/28 04:26:33;;;;;;;39.13;23.67;;;;;;;16.65;42.83;94970.44;5039749;28;20124;-91
2024/01/28 04:28:58;;;;;;;38.70;25.73;;;;;;;16.64;43.19;94966.22;5008655;28;20099;-92
2024/01/28 04:31:26;;;;;;;37.10;22.88;;;;;;;16.65;42.75;94969.69;5022824;28;20057;-91
2024/01/28 04:33:52;;;;;;;33.58;21.17;;;;;;;16.60;42.97;94965.59;5028903;28;20053;-91
2024/01/28 04:36:18;;;;;;;47.45;28.70;;;;;;;16.68;43.47;94972.22;5027976;28;20045;-91
2024/01/28 04:38:44;;;;;;;43.65;27.50;;;;;;;16.69;42.88;94970.25;5045019;28;20045;-92
2024/01/28 04:41:10;;;;;;;41.97;25.50;;;;;;;16.67;42.51;94972.72;5011768;28;20041;-91
2024/01/28 04:43:38;;;;;;;29.98;19.23;;;;;;;16.59;42.02;94980.44;5028981;28;20041;-91
2024/01/28 04:46:03;;;;;;;44.13;29.08;;;;;;;16.65;42.95;94977.88;5006550;28;20045;-91
2024/01/28 04:48:29;;;;;;;47.15;26.60;;;;;;;16.65;43.13;94988.81;4994994;28;20045;-91
2024/01/28 04:50:55;;;;;;;40.90;24.98;;;;;;;16.65;42.62;94984.09;5015791;28;20045;-91
2024/01/28 04:53:20;;;;;;;30.05;19.70;;;;;;;16.60;42.17;94981.19;4998980;28;20056;-92
2024/01/28 04:55:46;;;;;;;32.88;20.02;;;;;;;16.62;42.64;94979.53;5007204;28;20045;-92
2024/01/28 04:58:12;;;;;;;31.98;18.85;;;;;;;16.55;42.55;94981.81;5007308;28;20049;-91
2024/01/28 05:00:39;;;;;;;42.47;27.25;;;;;;;16.61;43.43;94991.66;5005399;28;20045;-92
2024/01/28 05:03:04;;;;;;;34.63;22.65;;;;;;;16.62;42.80;94989.69;5010314;28;20046;-91
2024/01/28 05:05:30;;;;;;;28.13;17.05;;;;;;;16.57;42.30;94982.88;5022354;28;20076;-91
2024/01/28 05:07:55;;;;;;;42.95;25.40;;;;;;;16.59;43.44;94985.16;5020069;28;20395;-91
2024/01/28 05:10:21;;;;;;;34.97;24.27;;;;;;;16.61;43.59;94980.00;5028294;28;20033;-92
2024/01/28 05:12:48;;;;;;;37.58;22.85;;;;;;;16.61;42.71;94988.94;5012347;28;20102;-91
2024/01/28 05:15:16;;;;;;;37.92;24.92;;;;;;;16.63;43.31;94988.47;5011692;28;20047;-92
2024/01/28 05:17:41;;;;;;;24.13;16.10;;;;;;;16.59;42.93;94985.91;5008815;28;20037;-92
2024/01/28 05:20:11;;;;;;;31.95;21.88;;;;;;;16.63;42.84;94993.94;4992191;28;20049;-92
2024/01/28 05:22:37;;;;;;;40.97;25.60;;;;;;;16.62;42.80;94989.69;5010496;28;20037;-91
2024/01/28 05:25:04;;;;;;;40.00;24.42;;;;;;;16.63;43.00;94983.81;5011192;28;20052;-91
2024/01/28 05:27:29;;;;;;;36.88;25.13;;;;;;;16.60;43.02;94989.41;5001123;28;20119;-91
2024/01/28 05:29:57;;;;;;;30.10;19.15;;;;;;;16.54;42.93;94991.22;5025632;28;20037;-92
2024/01/28 05:32:22;;;;;;;35.75;23.27;;;;;;;16.61;42.84;94982.72;5010835;28;20136;-92
2024/01/28 05:34:47;;;;;;;39.42;24.65;;;;;;;16.60;42.99;94998.34;5011798;28;20045;-91
2024/01/28 05:37:15;;;;;;;43.28;27.70;;;;;;;16.62;43.11;95000.63;5027076;28;20042;-92
2024/01/28 05:39:41;;;;;;;39.22;25.60;;;;;;;16.63;42.83;95000.19;5022324;28;20050;-91
2024/01/28 05:42:06;;;;;;;32.53;21.05;;;;;;;16.63;42.75;94999.41;5008391;28;20037;-91
2024/01/28 05:44:32;;;;;;;31.67;21.58;;;;;;;16.65;42.99;94989.56;5010919;28;20124;-91
2024/01/28 05:46:57;;;;;;;34.70;22.92;;;;;;;16.65;42.30;95000.47;5021832;28;20087;-91
2024/01/28 05:49:23;;;;;;;29.13;18.65;;;;;;;16.62;42.47;94995.16;4999835;28;20046;-91
2024/01/28 05:51:48;;;;;;;48.30;30.13;;;;;;;16.63;43.48;94994.72;5005407;28;20044;-91
2024/01/28 05:54:14;;;;;;;29.50;21.20;;;;;;;16.61;43.03;94994.41;5047448;28;20112;-91
2024/01/28 05:56:39;;;;;;;33.53;23.00;;;;;;;16.59;42.70;94996.06;5013342;28;20037;-91
2024/01/28 05:59:04;;;;;;;38.40;23.98;;;;;;;16.60;43.03;95001.06;5012317;28;20516;-91
2024/01/28 06:01:30;;;;;;;38.95;23.65;;;;;;;16.59;43.39;95012.44;5004756;28;20038;-92
2024/01/28 06:03:55;;;;;;;31.42;20.25;;;;;;;16.53;42.90;95006.09;5021713;28;20029;-91
2024/01/28 06:06:21;;;;;;;36.20;23.10;;;;;;;16.53;43.09;95006.09;5022031;28;20037;-92
2024/01/28 06:08:46;;;;;;;30.42;19.35;;;;;;;16.58;42.90;95005.47;4995475;28;20160;-92
2024/01/28 06:11:12;;;;;;;47.75;29.40;;;;;;;16.59;43.22;95015.19;5018523;28;20033;-92
2024/01/28 06:13:37;;;;;;;37.35;23.42;;;;;;;16.57;42.80;95015.63;5040140;28;20045;-92
2024/01/28 06:16:03;;;;;;;40.22;24.05;;;;;;;16.57;42.87;95014.88;5007220;28;20048;-91
2024/01/28 06:18:28;;;;;;;41.22;25.38;;;;;;;16.63;43.28;95018.50;4999863;28;20045;-92
2024/01/28 06:20:54;;;;;;;35.97;23.90;;;;;;;16.64;43.02;95003.66;4995285;28;20029;-91
2024/01/28 06:23:19;;;;;;;28.52;19.15;;;;;;;16.63;42.84;95015.78;4999787;28;20030;-92
2024/01/28 06:25:45;;;;;;;34.20;23.45;;;;;;;16.64;42.49;95020.81;5011440;28;20396;-92
2024/01/28 06:28:11;;;;;;;39.50;25.35;;;;;;;16.58;44.15;95014.41;5016726;28;20083;-91
2024/01/28 06:30:36;;;;;;;34.95;25.05;;;;;;;16.62;43.70;95030.66;4995629;28;20064;-92
2024/01/28 06:33:05;;;;;;;40.03;25.42;;;;;;;16.61;43.17;95024.44;5016471;28;20488;-91
2024/01/28 06:35:30;;;;;;;25.70;17.52;;;;;;;16.57;42.87;95023.81;5011777;28;20038;-91
2024/01/28 06:37:56;;;;;;;37.60;23.40;;;;;;;16.58;43.13;95028.06;5034131;28;20044;-91
2024/01/28 06:40:21;;;;;;;32.50;19.40;;;;;;;16.56;42.81;95040.66;5027531;28;20049;-91
2024/01/28 06:42:47;;;;;;;38.15;23.20;;;;;;;16.56;43.98;95027.00;4995694;28;20488;-91
2024/01/28 06:45:13;;;;;;;38.03;23.42;;;;;;;16.60;42.97;95017.44;4994608;28;20570;-91
2024/01/28 06:47:39;;;;;;;38.35;23.95;;;;;;;16.60;42.72;95014.72;5020148;28;20053;-91
2024/01/28 06:50:05;;;;;;;36.33;23.52;;;;;;;16.61;42.78;95010.78;5023726;28;20037;-91
2024/01/28 06:52:31;;;;;;;42.30;25.40;;;;;;;16.59;43.03;95015.19;5019225;28;20043;-92
2024/01/28 06:54:58;;;;;;;36.78;23.48;;;;;;;16.57;43.07;95012.91;5007668;28;20099;-91
2024/01/28 06:57:23;;;;;;;40.33;25.40;;;;;;;16.61;42.94;95012.75;5015793;28;20484;-91
2024/01/28 06:59:49;;;;;;;35.28;24.65;;;;;;;16.60;43.25;95017.44;4998296;28;20059;-91
2024/01/28 07:02:15;;;;;;;37.35;24.23;;;;;;;16.59;42.84;95024.13;5001063;28;20025;-92
2024/01/28 07:04:40;;;;;;;27.83;18.95;;;;;;;16.62;42.67;95014.25;5010862;28;20049;-92
2024/01/28 07:07:06;;;;;;;34.30;20.48;;;;;;;16.62;42.81;95014.25;5024146;28;20778;-91
2024/01/28 07:09:31;;;;;;;41.35;26.50;;;;;;;16.63;43.09;95021.25;5010500;28;20068;-92
2024/01/28 07:11:57;;;;;;;31.58;20.90;;;;;;;16.60;42.82;95022.91;4994320;28;20049;-91
2024/01/28 07:14:22;;;;;;;29.77;18.08;;;;;;;16.58;42.11;95016.41;5023209;28;20045;-91
2024/01/28 07:16:49;;;;;;;33.85;22.05;;;;;;;16.62;42.93;95017.00;5015910;28;20045;-91
2024/01/28 07:19:15;;;;;;;39.35;24.60;;;;;;;16.63;43.30;95016.56;5022956;28;20123;-92
2024/01/28 07:21:40;;;;;;;36.90;22.17;;;;;;;16.63;42.80;95024.75;5024262;28;20127;-91
2024/01/28 07:24:06;;;;;;;33.92;20.27;;;;;;;16.64;43.12;95025.50;5012906;28;20044;-91
2024/01/28 07:26:32;;;;;;;36.50;22.60;;;;;;;16.66;42.92;95020.34;5023659;28;20525;-89
2024/01/28 07:28:57;;;;;;;33.55;21.65;;;;;;;16.66;42.30;95025.81;5023985;28;20559;-92
2024/01/28 07:31:22;;;;;;;21.48;14.15;;;;;;;16.66;42.08;95025.81;4998429;28;20053;-92
2024/01/28 07:33:49;;;;;;;21.58;15.60;;;;;;;16.72;42.39;95024.72;5013602;28;20045;-90
2024/01/28 07:36:15;;;;;;;20.98;14.75;;;;;;;16.69;42.23;95016.69;5013241;28;20484;-91
2024/01/28 07:38:42;;;;;;;30.83;20.73;;;;;;;16.74;42.68;95016.81;5029157;28;20044;-91
2024/01/28 07:41:14;;;;;;;37.08;23.23;;;;;;;16.75;42.76;95017.56;5028720;28;20040;-91
2024/01/28 07:43:39;;;;;;;31.60;20.30;;;;;;;16.62;42.27;95006.84;5010325;28;20045;-91
2024/01/28 07:46:05;;;;;;;35.55;21.48;;;;;;;16.68;42.91;95017.91;5009967;28;20040;-92
2024/01/28 07:48:30;;;;;;;31.75;21.08;;;;;;;16.68;42.54;95006.97;5007505;28;20045;-91
2024/01/28 07:50:56;;;;;;;40.03;26.42;;;;;;;16.77;42.65;95009.69;5029480;28;20265;-91
2024/01/28 07:53:21;;;;;;;41.55;24.88;;;;;;;16.76;43.10;95017.13;5018221;28;20041;-92
2024/01/28 07:55:47;;;;;;;42.30;26.88;;;;;;;16.77;42.75;95018.63;5034763;28;20036;-91
2024/01/28 07:58:12;;;;;;;28.83;18.08;;;;;;;16.74;42.44;95016.81;4995708;28;20037;-92
2024/01/28 08:00:38;;;;;;;39.53;25.75;;;;;;;16.76;42.68;95011.66;5001726;28;20037;-92
2024/01/28 08:03:04;;;;;;;37.70;23.83;;;;;;;16.79;42.48;95015.44;5005273;28;20035;-91
2024/01/28 08:05:30;;;;;;;36.05;23.45;;;;;;;16.82;43.12;95017.25;5029462;28;20053;-91
2024/01/28 08:07:55;;;;;;;35.08;21.38;;;;;;;16.80;42.22;95016.94;5015186;28;20037;-92
2024/01/28 08:10:21;;;;;;;29.55;19.63;;;;;;;16.80;43.65;95027.88;5026886;28;20068;-92
2024/01/28 08:12:46;;;;;;;32.85;21.58;;;;;;;16.83;42.80;95026.19;5012435;28;20054;-92
2024/01/28 08:15:11;;;;;;;25.15;17.60;;;;;;;16.76;42.28;95019.09;5003649;28;20045;-92
2024/01/28 08:17:37;;;;;;;32.08;21.80;;;;;;;16.84;43.31;95016.78;5001358;28;20041;-91
2024/01/28 08:20:03;;;;;;;35.50;21.83;;;;;;;16.83;42.92;95023.47;5007801;28;20053;-90
2024/01/28 08:22:29;;;;;;;36.03;22.23;;;;;;;16.84;43.01;95020.28;5003505;28;20513;-92
2024/01/28 08:24:54;;;;;;;38.78;24.95;;;;;;;16.83;42.53;95020.75;5011151;28;20045;-92
2024/01/28 08:27:20;;;;;;;37.13;21.98;;;;;;;16.92;42.65;95026.91;5012090;28;20110;-91
2024/01/28 08:29:47;;;;;;;38.08;24.05;;;;;;;16.93;42.81;95016.75;5009580;28;20038;-92
2024/01/28 08:32:13;;;;;;;36.95;22.70;;;;;;;16.92;43.31;95026.91;5008980;28;20557;-92
2024/01/28 08:34:38;;;;;;;29.13;19.85;;;;;;;16.93;42.78;95014.00;5010486;28;20049;-92
2024/01/28 08:37:04;;;;;;;34.38;22.23;;;;;;;16.89;41.96;95011.44;5005993;28;20040;-92
2024/01/28 08:39:29;;;;;;;32.83;20.73;;;;;;;16.97;42.77;95017.34;4993629;28;20065;-91
2024/01/28 08:41:55;;;;;;;29.80;20.08;;;;;;;16.93;42.24;95016.75;4998302;28;20104;-92
2024/01/28 08:44:20;;;;;;;21.00;13.23;;;;;;;16.87;41.97;95018.59;4988866;28;20088;-92
2024/01/28 08:46:46;;;;;;;34.10;22.55;;;;;;;16.96;42.89;95018.56;4979884;28;20529;-91
2024/01/28 08:49:12;;;;;;;29.58;19.38;;;;;;;16.93;41.70;95024.94;4995343;28;20032;-92
2024/01/28 08:51:38;;;;;;;29.48;20.80;;;;;;;16.94;41.86;95026.44;4986056;28;20428;-91
2024/01/28 08:54:03;;;;;;;30.13;19.45;;;;;;;16.93;42.23;95025.69;4994089;28;20065;-91
2024/01/28 08:56:29;;;;;;;38.60;24.23;;;;;;;16.99;42.47;95023.84;4976653;28;20042;-92
2024/01/28 08:58:54;;;;;;;42.00;26.92;;;;;;;17.00;43.02;95022.63;4998711;28;20077;-91
2024/01/28 09:01:19;;;;;;;25.05;17.23;;;;;;;16.96;42.16;95027.50;5005843;28;20033;-92
2024/01/28 09:03:45;;;;;;;26.90;17.85;;;;;;;16.96;42.15;95032.97;4981910;28;20086;-92
2024/01/28 09:06:10;;;;;;;34.08;23.02;;;;;;;17.05;41.88;95030.22;4995765;28;20044;-91
2024/01/28 09:08:36;;;;;;;30.35;17.83;;;;;;;17.03;42.27;95020.94;4996183;28;20073;-92
2024/01/28 09:11:01;;;;;;;26.85;16.73;;;;;;;17.01;41.77;95026.13;5009294;28;20052;-92
2024/01/28 09:13:27;;;;;;;31.48;19.45;;;;;;;17.02;42.02;95024.91;4978471;28;20045;-92
2024/01/28 09:15:53;;;;;;;26.42;16.77;;;;;;;17.00;42.07;95030.81;5015562;28;20045;-92
2024/01/28 09:18:19;;;;;;;23.48;16.45;;;;;;;16.99;42.16;95021.13;4995844;28;20132;-92
2024/01/28 09:20:44;;;;;;;24.88;15.57;;;;;;;16.96;41.95;95019.31;5015510;28;20041;-92
2024/01/28 09:23:10;;;;;;;17.50;12.90;;;;;;;16.99;41.71;95020.34;4994135;28;20059;-92
2024/01/28 09:25:35;;;;;;;30.90;20.83;;;;;;;17.08;42.17;95031.25;4996265;28;20114;-92
2024/01/28 09:28:01;;;;;;;20.30;14.15;;;;;;;16.98;41.79;95030.53;4988374;28;20062;-92
2024/01/28 09:30:27;;;;;;;24.90;16.73;;;;;;;16.99;41.38;95023.09;4997189;28;20131;-92
2024/01/28 09:32:52;;;;;;;35.47;23.42;;;;;;;17.04;42.53;95019.75;4995886;28;20045;-92
2024/01/28 09:35:17;;;;;;;34.67;21.25;;;;;;;17.04;41.95;95030.66;5008516;28;20053;-92
2024/01/28 09:37:43;;;;;;;26.55;18.55;;;;;;;17.01;42.50;95028.84;5029067;28;20589;-92
2024/01/28 09:40:11;;;;;;;31.60;20.05;;;;;;;17.05;42.13;95032.94;5011131;28;20038;-92
2024/01/28 09:42:43;;;;;;;33.00;19.90;;;;;;;17.04;41.81;95025.97;5027408;28;20045;-92
2024/01/28 09:45:10;;;;;;;23.42;14.73;;;;;;;16.98;41.63;95027.81;5007797;28;20053;-92
2024/01/28 09:47:36;;;;;;;27.65;18.27;;;;;;;17.00;42.70;95027.34;5015759;28;20061;-92
2024/01/28 09:50:03;;;;;;;28.80;19.42;;;;;;;17.04;42.31;95039.63;5030796;28;20049;-92
2024/01/28 09:52:29;;;;;;;29.02;18.80;;;;;;;17.07;42.71;95027.78;5001378;28;20036;-92
2024/01/28 09:54:54;;;;;;;25.10;17.42;;;;;;;17.02;42.12;95027.63;5010839;28;20051;-91
2024/01/28 09:57:20;;;;;;;33.78;20.02;;;;;;;17.06;42.46;95039.16;4997518;28;20025;-91
2024/01/28 09:59:46;;;;;;;32.13;22.02;;;;;;;17.01;42.03;95037.06;5015354;28;20041;-92
2024/01/28 10:02:12;;;;;;;28.90;19.63;;;;;;;17.07;41.97;95038.69;5012431;28;20050;-92
2024/01/28 10:04:37;;;;;;;36.60;23.73;;;;;;;17.10;42.55;95029.56;5005623;28;20040;-92
2024/01/28 10:07:03;;;;;;;22.50;16.02;;;;;;;17.01;41.57;95040.53;5011503;28;20456;-92
2024/01/28 10:09:29;;;;;;;32.75;21.42;;;;;;;17.04;42.93;95038.88;5019134;28;20042;-92
2024/01/28 10:11:58;;;;;;;29.55;18.15;;;;;;;17.01;41.97;95040.53;5014214;28;20500;-91
2024/01/28 10:14:23;;;;;;;28.88;18.17;;;;;;;17.04;42.32;95030.66;5018222;28;20049;-92
2024/01/28 10:16:49;;;;;;;22.55;14.18;;;;;;;16.99;42.37;95028.56;4995458;28;20075;-92
2024/01/28 10:19:14;;;;;;;25.70;17.70;;;;;;;17.01;42.12;95031.59;4998918;28;20044;-92
2024/01/28 10:21:41;;;;;;;31.30;20.60;;;;;;;17.11;42.71;95030.31;5031554;28;20051;-91
2024/01/28 10:24:08;;;;;;;32.35;22.05;;;;;;;17.04;42.31;95027.94;5029328;28;20045;-92
2024/01/28 10:26:34;;;;;;;28.55;19.73;;;;;;;17.13;42.56;95014.97;5047130;28;20396;-91
2024/01/28 10:28:59;;;;;;;26.70;18.20;;;;;;;17.04;42.59;95014.28;5029214;28;20041;-92
2024/01/28 10:31:25;;;;;;;27.33;18.98;;;;;;;17.08;42.31;95012.13;5011562;28;20496;-91
2024/01/28 10:33:50;;;;;;;24.38;16.08;;;;;;;17.16;42.09;95013.28;5025207;28;20070;-91
2024/01/28 10:36:16;;;;;;;39.40;23.85;;;;;;;17.11;43.02;95009.22;5014444;28;20037;-92
2024/01/28 10:38:44;;;;;;;34.85;21.60;;;;;;;17.08;42.31;95010.16;5014779;28;20829;-92
2024/01/28 10:41:10;;;;;;;30.40;19.88;;;;;;;17.06;42.38;95004.41;4995346;28;20233;-92
2024/01/28 10:43:36;;;;;;;32.20;21.58;;;;;;;17.07;41.97;95011.38;5014502;28;20489;-92
2024/01/28 10:46:01;;;;;;;29.10;19.67;;;;;;;17.06;42.51;95009.09;5014495;28;20040;-91
2024/01/28 10:48:28;;;;;;;25.20;17.55;;;;;;;16.98;42.29;95005.19;5013297;28;20055;-91
2024/01/28 10:50:53;;;;;;;28.48;19.90;;;;;;;17.08;42.82;95006.66;5008288;28;20045;-92
2024/01/28 10:53:19;;;;;;;31.67;20.52;;;;;;;17.05;42.33;95004.84;4995326;28;20048;-92
2024/01/28 10:55:44;;;;;;;35.90;23.92;;;;;;;17.09;42.54;95003.47;5025347;28;20053;-92
2024/01/28 10:58:11;;;;;;;32.38;21.30;;;;;;;17.07;42.39;94994.22;5006600;28;20034;-92
2024/01/28 11:00:36;;;;;;;30.20;21.73;;;;;;;17.07;43.05;94991.50;4995160;28;20536;-92
2024/01/28 11:03:02;;;;;;;41.30;24.55;;;;;;;17.07;42.60;94997.72;5029390;28;20055;-92
2024/01/28 11:05:28;;;;;;;26.15;17.60;;;;;;;17.02;42.49;94992.13;5030714;28;20120;-92
2024/01/28 11:07:59;;;;;;;35.10;22.02;;;;;;;17.05;42.59;94989.22;5014538;28;20033;-92
2024/01/28 11:10:28;;;;;;;31.95;19.75;;;;;;;17.01;42.62;94993.34;5010512;28;20725;-92